createdAt,value
2022-08-31T00:00:41.378Z,0
2022-08-31T00:01:41.380Z,0
2022-08-31T00:02:41.574Z,0
2022-08-31T00:03:41.375Z,0
2022-08-31T00:04:41.840Z,0
2022-08-31T00:05:43.516Z,0
2022-08-31T00:06:41.402Z,0
2022-08-31T00:07:44.947Z,0
2022-08-31T00:08:41.399Z,0
2022-08-31T00:09:44.628Z,0
2022-08-31T00:10:47.375Z,0
2022-08-31T00:11:43.267Z,0
2022-08-31T00:12:42.536Z,0
2022-08-31T00:13:42.238Z,0
2022-08-31T00:14:41.406Z,0
2022-08-31T00:15:41.422Z,0
2022-08-31T00:16:42.359Z,0
2022-08-31T00:17:41.408Z,0
2022-08-31T00:18:41.424Z,0
2022-08-31T00:19:41.427Z,0
2022-08-31T00:20:44.938Z,0
2022-08-31T00:21:41.436Z,0
2022-08-31T00:22:41.432Z,0
2022-08-31T00:23:41.440Z,0
2022-08-31T00:24:41.455Z,0
2022-08-31T00:25:41.414Z,0
2022-08-31T00:26:41.447Z,0
2022-08-31T00:27:41.424Z,0
2022-08-31T00:28:41.426Z,0
2022-08-31T00:29:41.427Z,0
2022-08-31T00:30:41.440Z,0
2022-08-31T00:31:44.686Z,0
2022-08-31T00:32:41.449Z,0
2022-08-31T00:33:41.428Z,0
2022-08-31T00:34:41.820Z,0
2022-08-31T00:35:41.423Z,0
2022-08-31T00:36:44.281Z,0
2022-08-31T00:37:41.441Z,0
2022-08-31T00:38:41.444Z,0
2022-08-31T00:39:41.444Z,0
2022-08-31T00:40:51.667Z,0
2022-08-31T00:41:41.458Z,0
2022-08-31T00:42:44.507Z,0
2022-08-31T00:43:41.452Z,0
2022-08-31T00:44:41.453Z,0
2022-08-31T00:45:41.784Z,0
2022-08-31T00:46:41.442Z,0
2022-08-31T00:47:45.306Z,0
2022-08-31T00:48:41.455Z,0
2022-08-31T00:49:41.462Z,0
2022-08-31T00:50:41.473Z,0
2022-08-31T00:51:41.459Z,0
2022-08-31T00:52:44.579Z,0
2022-08-31T00:53:44.493Z,0
2022-08-31T00:54:41.549Z,0
2022-08-31T00:55:41.503Z,0
2022-08-31T00:56:41.469Z,0
2022-08-31T00:57:41.531Z,0
2022-08-31T00:58:45.705Z,0
2022-08-31T00:59:41.487Z,0
2022-08-31T01:00:41.778Z,0
2022-08-31T01:01:41.827Z,0
2022-08-31T01:02:41.728Z,0
2022-08-31T01:03:42.596Z,0
2022-08-31T01:04:44.239Z,0
2022-08-31T01:05:41.519Z,0
2022-08-31T01:06:41.548Z,0
2022-08-31T01:07:41.486Z,0
2022-08-31T01:08:41.493Z,0
2022-08-31T01:09:58.362Z,0
2022-08-31T01:10:41.509Z,0
2022-08-31T01:11:41.504Z,0
2022-08-31T01:12:42.667Z,0
2022-08-31T01:13:41.505Z,0
2022-08-31T01:14:42.900Z,0
2022-08-31T01:15:44.421Z,0
2022-08-31T01:16:41.926Z,0
2022-08-31T01:17:41.502Z,0
2022-08-31T01:18:41.514Z,0
2022-08-31T01:19:41.507Z,0
2022-08-31T01:20:53.396Z,0
2022-08-31T01:21:41.522Z,0
2022-08-31T01:22:41.529Z,0
2022-08-31T01:23:41.518Z,0
2022-08-31T01:24:41.535Z,0
2022-08-31T01:25:41.537Z,0
2022-08-31T01:26:44.335Z,0
2022-08-31T01:27:41.530Z,0
2022-08-31T01:28:41.524Z,0
2022-08-31T01:29:41.538Z,0
2022-08-31T01:30:41.550Z,0
2022-08-31T01:31:44.664Z,0
2022-08-31T01:32:41.539Z,0
2022-08-31T01:33:41.531Z,0
2022-08-31T01:34:41.538Z,0
2022-08-31T01:35:41.561Z,0
2022-08-31T01:36:41.601Z,0
2022-08-31T01:37:47.205Z,0
2022-08-31T01:38:41.547Z,0
2022-08-31T01:39:41.535Z,0
2022-08-31T01:40:42.006Z,0
2022-08-31T01:41:41.562Z,0
2022-08-31T01:42:44.609Z,0
2022-08-31T01:43:42.066Z,0
2022-08-31T01:44:41.556Z,0
2022-08-31T01:45:41.576Z,0
2022-08-31T01:46:41.894Z,0
2022-08-31T01:47:41.564Z,0
2022-08-31T01:48:47.859Z,0
2022-08-31T01:49:41.611Z,0
2022-08-31T01:50:41.678Z,0
2022-08-31T01:51:41.567Z,0
2022-08-31T01:52:41.578Z,0
2022-08-31T01:53:49.417Z,0
2022-08-31T01:54:41.578Z,0
2022-08-31T01:55:41.603Z,0
2022-08-31T01:56:41.578Z,0
2022-08-31T01:57:41.679Z,0
2022-08-31T01:58:41.586Z,0
2022-08-31T01:59:41.588Z,0
2022-08-31T02:00:41.866Z,0
2022-08-31T02:01:42.072Z,0
2022-08-31T02:02:44.230Z,0
2022-08-31T02:03:41.582Z,0
2022-08-31T02:04:41.593Z,0
2022-08-31T02:05:41.606Z,0
2022-08-31T02:06:41.596Z,0
2022-08-31T02:07:41.597Z,0
2022-08-31T02:08:44.590Z,0
2022-08-31T02:09:44.628Z,0
2022-08-31T02:10:41.631Z,0
2022-08-31T02:11:41.621Z,0
2022-08-31T02:12:41.612Z,0
2022-08-31T02:13:41.614Z,0
2022-08-31T02:14:41.611Z,0
2022-08-31T02:15:41.625Z,0
2022-08-31T02:16:42.038Z,0
2022-08-31T02:17:42.391Z,0
2022-08-31T02:18:41.638Z,0
2022-08-31T02:19:41.648Z,0
2022-08-31T02:20:44.419Z,0
2022-08-31T02:21:43.657Z,0
2022-08-31T02:22:41.611Z,0
2022-08-31T02:23:41.657Z,0
2022-08-31T02:24:41.630Z,0
2022-08-31T02:25:44.941Z,0
2022-08-31T02:26:41.620Z,0
2022-08-31T02:27:41.630Z,0
2022-08-31T02:28:41.651Z,0
2022-08-31T02:29:41.643Z,0
2022-08-31T02:30:41.658Z,0
2022-08-31T02:31:42.082Z,0
2022-08-31T02:32:41.645Z,0
2022-08-31T02:33:41.647Z,0
2022-08-31T02:34:41.643Z,0
2022-08-31T02:35:41.662Z,0
2022-08-31T02:36:46.693Z,0
2022-08-31T02:37:43.131Z,0
2022-08-31T02:38:41.656Z,0
2022-08-31T02:39:43.252Z,0
2022-08-31T02:40:43.503Z,0
2022-08-31T02:41:41.653Z,0
2022-08-31T02:43:00.686Z,0
2022-08-31T02:43:41.665Z,0
2022-08-31T02:44:41.660Z,0
2022-08-31T02:45:41.696Z,0
2022-08-31T02:46:42.284Z,0
2022-08-31T02:47:44.741Z,0
2022-08-31T02:48:41.686Z,0
2022-08-31T02:49:41.674Z,0
2022-08-31T02:50:43.187Z,0
2022-08-31T02:51:41.693Z,0
2022-08-31T02:52:41.685Z,0
2022-08-31T02:53:41.676Z,0
2022-08-31T02:54:41.831Z,0
2022-08-31T02:55:41.707Z,0
2022-08-31T02:56:41.674Z,0
2022-08-31T02:57:42.276Z,0
2022-08-31T02:58:44.463Z,0
2022-08-31T02:59:41.682Z,0
2022-08-31T03:00:41.707Z,0
2022-08-31T03:01:42.162Z,0
2022-08-31T03:02:41.806Z,0
2022-08-31T03:03:49.499Z,0
2022-08-31T03:04:41.700Z,0
2022-08-31T03:05:41.728Z,0
2022-08-31T03:06:41.731Z,0
2022-08-31T03:07:41.696Z,0
2022-08-31T03:08:41.732Z,0
2022-08-31T03:09:45.890Z,0
2022-08-31T03:10:41.733Z,0
2022-08-31T03:11:41.748Z,0
2022-08-31T03:12:41.727Z,0
2022-08-31T03:13:41.715Z,0
2022-08-31T03:14:44.471Z,0
2022-08-31T03:15:42.048Z,0
2022-08-31T03:16:41.811Z,0
2022-08-31T03:17:41.721Z,0
2022-08-31T03:18:41.749Z,0
2022-08-31T03:19:41.741Z,0
2022-08-31T03:20:44.737Z,0
2022-08-31T03:21:41.729Z,0
2022-08-31T03:22:47.843Z,0
2022-08-31T03:23:41.760Z,0
2022-08-31T03:24:41.736Z,0
2022-08-31T03:25:46.573Z,0
2022-08-31T03:26:41.739Z,0
2022-08-31T03:27:41.802Z,0
2022-08-31T03:28:41.821Z,0
2022-08-31T03:29:41.747Z,0
2022-08-31T03:30:41.997Z,0
2022-08-31T03:31:44.935Z,0
2022-08-31T03:32:41.908Z,0
2022-08-31T03:33:41.771Z,0
2022-08-31T03:34:41.777Z,0
2022-08-31T03:35:41.776Z,0
2022-08-31T03:36:45.254Z,0
2022-08-31T03:37:41.763Z,0
2022-08-31T03:38:41.767Z,0
2022-08-31T03:39:41.759Z,0
2022-08-31T03:40:42.137Z,0
2022-08-31T03:41:41.788Z,0
2022-08-31T03:42:44.519Z,0
2022-08-31T03:43:41.760Z,0
2022-08-31T03:44:41.769Z,0
2022-08-31T03:45:41.773Z,0
2022-08-31T03:46:42.148Z,0
2022-08-31T03:47:51.487Z,0
2022-08-31T03:48:43.325Z,0
2022-08-31T03:49:41.796Z,0
2022-08-31T03:50:41.784Z,0
2022-08-31T03:51:41.793Z,0
2022-08-31T03:52:41.787Z,0
2022-08-31T03:53:44.855Z,0
2022-08-31T03:54:41.786Z,0
2022-08-31T03:55:42.479Z,0
2022-08-31T03:56:41.799Z,0
2022-08-31T03:57:41.789Z,0
2022-08-31T03:58:44.819Z,0
2022-08-31T03:59:41.796Z,0
2022-08-31T04:00:41.800Z,0
2022-08-31T04:01:43.626Z,0
2022-08-31T04:02:44.785Z,0
2022-08-31T04:03:41.795Z,0
2022-08-31T04:04:44.897Z,0
2022-08-31T04:05:41.821Z,0
2022-08-31T04:06:41.841Z,0
2022-08-31T04:07:49.469Z,0
2022-08-31T04:08:41.816Z,0
2022-08-31T04:09:44.680Z,0
2022-08-31T04:10:41.820Z,0
2022-08-31T04:11:54.461Z,0
2022-08-31T04:12:41.823Z,0
2022-08-31T04:13:41.821Z,0
2022-08-31T04:14:41.844Z,0
2022-08-31T04:15:42.167Z,4
2022-08-31T04:16:41.841Z,0
2022-08-31T04:17:41.831Z,0
2022-08-31T04:18:41.827Z,0
2022-08-31T04:19:41.828Z,4
2022-08-31T04:20:44.919Z,4
2022-08-31T04:21:45.447Z,0
2022-08-31T04:22:41.855Z,4
2022-08-31T04:23:41.845Z,4
2022-08-31T04:24:41.843Z,4
2022-08-31T04:25:41.863Z,4
2022-08-31T04:26:43.838Z,4
2022-08-31T04:27:41.842Z,4
2022-08-31T04:28:41.846Z,4
2022-08-31T04:29:41.852Z,4
2022-08-31T04:30:42.084Z,4
2022-08-31T04:31:41.963Z,4
2022-08-31T04:32:41.883Z,4
2022-08-31T04:33:42.748Z,4
2022-08-31T04:34:41.863Z,8
2022-08-31T04:35:41.858Z,4
2022-08-31T04:36:45.180Z,8
2022-08-31T04:37:49.215Z,8
2022-08-31T04:38:43.643Z,8
2022-08-31T04:39:57.623Z,8
2022-08-31T04:40:42.499Z,12
2022-08-31T04:41:41.896Z,12
2022-08-31T04:42:41.872Z,12
2022-08-31T04:43:41.885Z,12
2022-08-31T04:44:42.677Z,12
2022-08-31T04:45:42.240Z,12
2022-08-31T04:46:42.364Z,12
2022-08-31T04:47:44.716Z,16
2022-08-31T04:48:41.884Z,16
2022-08-31T04:49:41.885Z,16
2022-08-31T04:50:47.414Z,16
2022-08-31T04:51:42.597Z,20
2022-08-31T04:52:57.325Z,20
2022-08-31T04:53:41.896Z,20
2022-08-31T04:54:41.893Z,20
2022-08-31T04:55:41.887Z,20
2022-08-31T04:56:41.926Z,24
2022-08-31T04:57:41.894Z,24
2022-08-31T04:58:41.919Z,24
2022-08-31T04:59:41.908Z,24
2022-08-31T05:00:41.926Z,24
2022-08-31T05:01:50.664Z,28
2022-08-31T05:02:42.102Z,28
2022-08-31T05:03:44.753Z,28
2022-08-31T05:04:41.923Z,32
2022-08-31T05:05:41.915Z,32
2022-08-31T05:06:41.906Z,36
2022-08-31T05:07:41.939Z,36
2022-08-31T05:08:41.906Z,36
2022-08-31T05:09:41.931Z,36
2022-08-31T05:10:41.922Z,40
2022-08-31T05:11:41.926Z,40
2022-08-31T05:12:41.962Z,44
2022-08-31T05:13:41.924Z,44
2022-08-31T05:14:46.933Z,44
2022-08-31T05:16:41.927Z,48
2022-08-31T05:17:41.949Z,48
2022-08-31T05:18:41.943Z,48
2022-08-31T05:19:47.178Z,48
2022-08-31T05:20:42.171Z,56
2022-08-31T05:21:41.946Z,56
2022-08-31T05:22:41.978Z,56
2022-08-31T05:23:41.942Z,60
2022-08-31T05:24:41.939Z,60
2022-08-31T05:25:45.123Z,64
2022-08-31T05:26:46.803Z,68
2022-08-31T05:27:42.022Z,72
2022-08-31T05:28:41.958Z,76
2022-08-31T05:29:41.954Z,80
2022-08-31T05:30:42.115Z,80
2022-08-31T05:31:41.959Z,84
2022-08-31T05:32:45.890Z,92
2022-08-31T05:33:42.029Z,96
2022-08-31T05:34:41.955Z,96
2022-08-31T05:35:41.986Z,104
2022-08-31T05:36:45.045Z,108
2022-08-31T05:37:41.988Z,112
2022-08-31T05:38:42.365Z,116
2022-08-31T05:39:41.805Z,120
2022-08-31T05:40:42.475Z,124
2022-08-31T05:41:44.823Z,128
2022-08-31T05:42:41.998Z,132
2022-08-31T05:43:41.982Z,136
2022-08-31T05:44:41.972Z,140
2022-08-31T05:45:41.986Z,144
2022-08-31T05:46:42.383Z,144
2022-08-31T05:47:45.013Z,148
2022-08-31T05:48:42.829Z,152
2022-08-31T05:49:46.072Z,156
2022-08-31T05:50:43.019Z,156
2022-08-31T05:51:45.499Z,160
2022-08-31T05:52:43.363Z,164
2022-08-31T05:53:42.003Z,168
2022-08-31T05:54:41.998Z,176
2022-08-31T05:55:42.010Z,184
2022-08-31T05:56:42.001Z,200
2022-08-31T05:57:42.012Z,220
2022-08-31T05:58:48.466Z,224
2022-08-31T05:59:42.009Z,236
2022-08-31T06:00:42.004Z,232
2022-08-31T06:01:42.289Z,240
2022-08-31T06:02:42.030Z,244
2022-08-31T06:03:45.095Z,264
2022-08-31T06:04:42.104Z,252
2022-08-31T06:05:42.313Z,264
2022-08-31T06:06:42.030Z,272
2022-08-31T06:07:42.049Z,276
2022-08-31T06:08:42.041Z,280
2022-08-31T06:09:45.560Z,284
2022-08-31T06:10:42.034Z,288
2022-08-31T06:11:42.041Z,292
2022-08-31T06:12:42.048Z,276
2022-08-31T06:13:42.024Z,264
2022-08-31T06:14:54.973Z,248
2022-08-31T06:15:51.986Z,244
2022-08-31T06:16:42.532Z,244
2022-08-31T06:17:42.060Z,236
2022-08-31T06:18:42.046Z,232
2022-08-31T06:19:42.045Z,244
2022-08-31T06:20:45.102Z,248
2022-08-31T06:21:52.655Z,240
2022-08-31T06:22:42.080Z,232
2022-08-31T06:23:42.060Z,224
2022-08-31T06:24:42.060Z,224
2022-08-31T06:25:45.230Z,220
2022-08-31T06:26:42.076Z,220
2022-08-31T06:27:42.072Z,220
2022-08-31T06:28:42.069Z,228
2022-08-31T06:29:42.083Z,232
2022-08-31T06:30:59.869Z,236
2022-08-31T06:31:45.532Z,236
2022-08-31T06:32:42.095Z,240
2022-08-31T06:33:42.068Z,244
2022-08-31T06:34:42.078Z,252
2022-08-31T06:35:42.092Z,260
2022-08-31T06:36:45.108Z,272
2022-08-31T06:37:42.088Z,276
2022-08-31T06:38:42.091Z,280
2022-08-31T06:39:42.081Z,288
2022-08-31T06:40:42.440Z,288
2022-08-31T06:41:43.763Z,288
2022-08-31T06:42:42.123Z,288
2022-08-31T06:43:42.124Z,288
2022-08-31T06:44:42.078Z,284
2022-08-31T06:45:42.083Z,284
2022-08-31T06:46:42.424Z,280
2022-08-31T06:47:45.163Z,276
2022-08-31T06:48:42.091Z,276
2022-08-31T06:49:42.089Z,276
2022-08-31T06:50:42.092Z,276
2022-08-31T06:51:42.096Z,276
2022-08-31T06:52:45.751Z,280
2022-08-31T06:53:41.935Z,280
2022-08-31T06:54:42.100Z,284
2022-08-31T06:55:42.103Z,288
2022-08-31T06:56:42.110Z,292
2022-08-31T06:57:43.248Z,296
2022-08-31T06:58:42.109Z,300
2022-08-31T06:59:42.128Z,304
2022-08-31T07:00:42.556Z,316
2022-08-31T07:01:43.860Z,328
2022-08-31T07:02:42.762Z,352
2022-08-31T07:03:45.122Z,368
2022-08-31T07:04:42.128Z,388
2022-08-31T07:05:42.141Z,392
2022-08-31T07:06:42.149Z,380
2022-08-31T07:07:42.140Z,396
2022-08-31T07:08:42.130Z,392
2022-08-31T07:09:42.138Z,348
2022-08-31T07:10:42.129Z,348
2022-08-31T07:11:48.091Z,372
2022-08-31T07:12:42.144Z,364
2022-08-31T07:13:42.132Z,372
2022-08-31T07:14:50.144Z,348
2022-08-31T07:15:42.148Z,340
2022-08-31T07:16:42.860Z,340
2022-08-31T07:17:42.165Z,348
2022-08-31T07:18:42.150Z,376
2022-08-31T07:19:49.554Z,404
2022-08-31T07:20:42.159Z,396
2022-08-31T07:21:42.147Z,380
2022-08-31T07:22:42.165Z,384
2022-08-31T07:23:42.153Z,392
2022-08-31T07:24:42.215Z,396
2022-08-31T07:25:42.152Z,384
2022-08-31T07:26:43.205Z,372
2022-08-31T07:27:42.174Z,360
2022-08-31T07:28:42.156Z,344
2022-08-31T07:29:42.239Z,332
2022-08-31T07:30:45.520Z,324
2022-08-31T07:31:42.061Z,320
2022-08-31T07:32:42.185Z,316
2022-08-31T07:33:42.217Z,316
2022-08-31T07:34:42.176Z,312
2022-08-31T07:35:42.233Z,308
2022-08-31T07:36:42.195Z,308
2022-08-31T07:37:42.357Z,308
2022-08-31T07:38:42.199Z,308
2022-08-31T07:39:42.188Z,312
2022-08-31T07:40:45.868Z,316
2022-08-31T07:41:45.259Z,316
2022-08-31T07:42:42.213Z,316
2022-08-31T07:43:43.899Z,316
2022-08-31T07:44:42.647Z,320
2022-08-31T07:45:46.553Z,320
2022-08-31T07:46:45.058Z,324
2022-08-31T07:47:42.550Z,328
2022-08-31T07:48:42.195Z,328
2022-08-31T07:49:42.204Z,332
2022-08-31T07:50:42.200Z,340
2022-08-31T07:51:42.221Z,336
2022-08-31T07:52:42.943Z,340
2022-08-31T07:53:42.239Z,340
2022-08-31T07:54:42.323Z,340
2022-08-31T07:55:42.629Z,344
2022-08-31T07:56:42.219Z,344
2022-08-31T07:57:42.234Z,348
2022-08-31T07:58:42.227Z,348
2022-08-31T07:59:42.213Z,356
2022-08-31T08:00:42.226Z,360
2022-08-31T08:01:43.423Z,372
2022-08-31T08:02:42.492Z,376
2022-08-31T08:03:45.220Z,380
2022-08-31T08:04:42.226Z,392
2022-08-31T08:05:44.077Z,400
2022-08-31T08:06:42.421Z,408
2022-08-31T08:07:43.656Z,416
2022-08-31T08:08:50.443Z,420
2022-08-31T08:09:42.262Z,424
2022-08-31T08:10:46.610Z,428
2022-08-31T08:11:42.257Z,436
2022-08-31T08:12:43.529Z,440
2022-08-31T08:13:42.610Z,444
2022-08-31T08:14:45.342Z,452
2022-08-31T08:15:44.931Z,448
2022-08-31T08:16:42.606Z,448
2022-08-31T08:17:42.250Z,440
2022-08-31T08:18:42.261Z,436
2022-08-31T08:19:45.163Z,428
2022-08-31T08:20:48.415Z,428
2022-08-31T08:21:42.484Z,424
2022-08-31T08:23:00.829Z,424
2022-08-31T08:23:44.205Z,424
2022-08-31T08:24:43.099Z,428
2022-08-31T08:25:46.291Z,428
2022-08-31T08:26:44.239Z,436
2022-08-31T08:27:42.326Z,440
2022-08-31T08:28:46.465Z,444
2022-08-31T08:29:42.270Z,448
2022-08-31T08:30:48.101Z,452
2022-08-31T08:31:42.556Z,460
2022-08-31T08:32:43.073Z,464
2022-08-31T08:33:42.299Z,472
2022-08-31T08:34:42.273Z,484
2022-08-31T08:35:43.398Z,492
2022-08-31T08:36:43.027Z,496
2022-08-31T08:38:10.204Z,488
2022-08-31T08:38:42.363Z,484
2022-08-31T08:39:42.300Z,480
2022-08-31T08:40:42.736Z,468
2022-08-31T08:41:45.329Z,460
2022-08-31T08:42:42.782Z,456
2022-08-31T08:43:48.076Z,452
2022-08-31T08:44:42.310Z,448
2022-08-31T08:45:42.541Z,448
2022-08-31T08:46:43.054Z,452
2022-08-31T08:47:48.420Z,456
2022-08-31T08:48:42.361Z,460
2022-08-31T08:49:42.518Z,472
2022-08-31T08:50:42.307Z,484
2022-08-31T08:51:42.320Z,504
2022-08-31T08:52:45.084Z,524
2022-08-31T08:53:42.320Z,540
2022-08-31T08:54:44.616Z,556
2022-08-31T08:55:42.335Z,568
2022-08-31T08:56:42.332Z,584
2022-08-31T08:57:42.353Z,608
2022-08-31T08:58:45.197Z,632
2022-08-31T08:59:42.326Z,660
2022-08-31T09:00:42.325Z,676
2022-08-31T09:01:42.797Z,696
2022-08-31T09:02:42.849Z,724
2022-08-31T09:03:45.669Z,748
2022-08-31T09:04:42.351Z,764
2022-08-31T09:05:42.331Z,780
2022-08-31T09:06:58.256Z,780
2022-08-31T09:07:42.345Z,772
2022-08-31T09:08:42.373Z,772
2022-08-31T09:09:42.338Z,748
2022-08-31T09:10:42.354Z,692
2022-08-31T09:11:42.354Z,668
2022-08-31T09:12:42.514Z,684
2022-08-31T09:13:42.368Z,620
2022-08-31T09:14:45.409Z,624
2022-08-31T09:15:42.623Z,636
2022-08-31T09:16:42.469Z,664
2022-08-31T09:17:42.356Z,684
2022-08-31T09:18:42.377Z,676
2022-08-31T09:19:42.394Z,708
2022-08-31T09:20:42.374Z,732
2022-08-31T09:21:42.366Z,776
2022-08-31T09:22:42.366Z,844
2022-08-31T09:23:42.389Z,864
2022-08-31T09:24:42.375Z,928
2022-08-31T09:25:42.376Z,944
2022-08-31T09:26:42.502Z,1008
2022-08-31T09:27:42.376Z,1072
2022-08-31T09:28:42.400Z,1072
2022-08-31T09:29:42.384Z,1104
2022-08-31T09:30:45.627Z,1100
2022-08-31T09:31:42.731Z,1144
2022-08-31T09:32:42.398Z,1172
2022-08-31T09:33:42.418Z,1176
2022-08-31T09:34:42.397Z,1160
2022-08-31T09:35:42.403Z,1192
2022-08-31T09:36:42.416Z,1236
2022-08-31T09:37:42.410Z,1272
2022-08-31T09:38:42.414Z,1292
2022-08-31T09:39:44.070Z,1332
2022-08-31T09:40:42.744Z,1300
2022-08-31T09:41:45.522Z,1328
2022-08-31T09:42:43.718Z,1364
2022-08-31T09:43:43.575Z,1376
2022-08-31T09:44:42.899Z,1384
2022-08-31T09:45:48.797Z,1384
2022-08-31T09:46:45.474Z,1372
2022-08-31T09:47:42.430Z,1356
2022-08-31T09:48:42.432Z,1336
2022-08-31T09:49:42.419Z,1284
2022-08-31T09:50:42.563Z,1272
2022-08-31T09:51:42.451Z,1088
2022-08-31T09:52:42.301Z,1084
2022-08-31T09:53:42.472Z,1188
2022-08-31T09:54:48.856Z,1260
2022-08-31T09:55:42.276Z,1280
2022-08-31T09:56:42.465Z,1336
2022-08-31T09:57:45.489Z,1308
2022-08-31T09:58:42.455Z,1272
2022-08-31T09:59:43.368Z,1248
2022-08-31T10:00:42.474Z,1276
2022-08-31T10:01:42.960Z,1232
2022-08-31T10:02:42.480Z,1200
2022-08-31T10:03:42.462Z,1200
2022-08-31T10:04:42.928Z,1212
2022-08-31T10:05:42.550Z,1300
2022-08-31T10:06:42.466Z,1340
2022-08-31T10:07:42.533Z,1388
2022-08-31T10:08:45.551Z,1384
2022-08-31T10:09:43.869Z,1380
2022-08-31T10:10:42.446Z,1332
2022-08-31T10:11:43.215Z,1356
2022-08-31T10:12:42.465Z,1352
2022-08-31T10:13:42.484Z,1416
2022-08-31T10:14:42.474Z,1408
2022-08-31T10:15:42.742Z,1432
2022-08-31T10:16:42.473Z,1420
2022-08-31T10:17:42.477Z,1416
2022-08-31T10:18:44.885Z,1340
2022-08-31T10:19:45.561Z,1272
2022-08-31T10:20:42.532Z,1164
2022-08-31T10:21:42.489Z,1136
2022-08-31T10:22:42.505Z,1172
2022-08-31T10:23:42.513Z,1100
2022-08-31T10:24:42.491Z,1072
2022-08-31T10:25:42.493Z,1064
2022-08-31T10:26:42.494Z,1040
2022-08-31T10:27:42.496Z,1016
2022-08-31T10:28:42.531Z,928
2022-08-31T10:29:42.501Z,956
2022-08-31T10:30:45.865Z,1020
2022-08-31T10:31:43.141Z,1032
2022-08-31T10:32:42.495Z,1068
2022-08-31T10:33:42.520Z,1036
2022-08-31T10:34:42.512Z,1032
2022-08-31T10:35:45.373Z,992
2022-08-31T10:36:42.535Z,884
2022-08-31T10:37:42.702Z,828
2022-08-31T10:38:42.530Z,868
2022-08-31T10:39:42.517Z,972
2022-08-31T10:40:43.059Z,808
2022-08-31T10:41:45.553Z,892
2022-08-31T10:42:42.536Z,856
2022-08-31T10:43:42.567Z,796
2022-08-31T10:44:49.946Z,808
2022-08-31T10:45:42.541Z,812
2022-08-31T10:46:45.876Z,844
2022-08-31T10:47:42.541Z,872
2022-08-31T10:48:42.554Z,864
2022-08-31T10:49:42.525Z,876
2022-08-31T10:50:42.681Z,880
2022-08-31T10:51:42.540Z,852
2022-08-31T10:52:45.541Z,852
2022-08-31T10:53:46.732Z,880
2022-08-31T10:54:42.544Z,916
2022-08-31T10:55:42.544Z,904
2022-08-31T10:56:42.548Z,812
2022-08-31T10:57:45.547Z,844
2022-08-31T10:58:42.579Z,800
2022-08-31T10:59:50.054Z,824
2022-08-31T11:00:42.584Z,868
2022-08-31T11:01:42.935Z,848
2022-08-31T11:02:42.562Z,824
2022-08-31T11:03:45.932Z,768
2022-08-31T11:04:43.064Z,660
2022-08-31T11:05:42.569Z,680
2022-08-31T11:06:42.573Z,620
2022-08-31T11:07:42.568Z,612
2022-08-31T11:08:45.631Z,604
2022-08-31T11:09:42.577Z,604
2022-08-31T11:10:42.578Z,616
2022-08-31T11:11:49.273Z,636
2022-08-31T11:12:42.653Z,672
2022-08-31T11:13:45.164Z,676
2022-08-31T11:14:45.638Z,676
2022-08-31T11:15:42.786Z,656
2022-08-31T11:16:45.944Z,652
2022-08-31T11:17:42.581Z,644
2022-08-31T11:18:42.708Z,640
2022-08-31T11:19:45.434Z,632
2022-08-31T11:20:42.615Z,636
2022-08-31T11:21:42.591Z,640
2022-08-31T11:22:42.601Z,644
2022-08-31T11:23:50.634Z,652
2022-08-31T11:24:44.419Z,644
2022-08-31T11:25:45.637Z,648
2022-08-31T11:26:42.646Z,656
2022-08-31T11:27:42.648Z,668
2022-08-31T11:28:42.599Z,668
2022-08-31T11:29:42.642Z,652
2022-08-31T11:30:55.197Z,648
2022-08-31T11:31:43.053Z,648
2022-08-31T11:32:42.615Z,640
2022-08-31T11:34:17.846Z,628
2022-08-31T11:34:42.644Z,616
2022-08-31T11:35:50.092Z,596
2022-08-31T11:36:45.458Z,580
2022-08-31T11:37:42.663Z,552
2022-08-31T11:38:42.628Z,524
2022-08-31T11:39:42.672Z,488
2022-08-31T11:40:43.731Z,464
2022-08-31T11:41:45.721Z,452
2022-08-31T11:42:42.643Z,440
2022-08-31T11:43:42.641Z,436
2022-08-31T11:44:42.849Z,436
2022-08-31T11:45:43.902Z,432
2022-08-31T11:46:44.969Z,416
2022-08-31T11:47:43.909Z,400
2022-08-31T11:48:43.477Z,384
2022-08-31T11:49:42.658Z,368
2022-08-31T11:50:42.646Z,364
2022-08-31T11:51:47.697Z,356
2022-08-31T11:52:42.650Z,352
2022-08-31T11:53:42.668Z,348
2022-08-31T11:54:43.869Z,344
2022-08-31T11:55:42.657Z,336
2022-08-31T11:56:42.656Z,332
2022-08-31T11:57:47.439Z,324
2022-08-31T11:58:42.664Z,324
2022-08-31T11:59:42.682Z,324
2022-08-31T12:00:42.720Z,312
2022-08-31T12:01:42.678Z,300
2022-08-31T12:02:43.003Z,292
2022-08-31T12:03:42.672Z,276
2022-08-31T12:04:44.570Z,264
2022-08-31T12:05:42.985Z,252
2022-08-31T12:06:42.715Z,244
2022-08-31T12:07:42.821Z,240
2022-08-31T12:08:45.455Z,244
2022-08-31T12:09:42.719Z,244
2022-08-31T12:10:42.763Z,248
2022-08-31T12:11:42.790Z,256
2022-08-31T12:12:46.160Z,268
2022-08-31T12:13:45.469Z,276
2022-08-31T12:14:42.702Z,280
2022-08-31T12:15:42.969Z,280
2022-08-31T12:16:42.693Z,280
2022-08-31T12:17:42.725Z,276
2022-08-31T12:18:42.701Z,268
2022-08-31T12:19:45.625Z,256
2022-08-31T12:20:42.721Z,244
2022-08-31T12:21:42.724Z,240
2022-08-31T12:22:42.725Z,236
2022-08-31T12:23:43.063Z,240
2022-08-31T12:24:53.905Z,240
2022-08-31T12:25:42.716Z,240
2022-08-31T12:26:48.898Z,236
2022-08-31T12:27:42.750Z,236
2022-08-31T12:28:42.726Z,232
2022-08-31T12:29:44.066Z,228
2022-08-31T12:30:42.875Z,220
2022-08-31T12:31:42.818Z,216
2022-08-31T12:32:42.740Z,204
2022-08-31T12:33:42.724Z,196
2022-08-31T12:34:42.773Z,184
2022-08-31T12:35:45.676Z,172
2022-08-31T12:36:42.768Z,160
2022-08-31T12:37:42.756Z,148
2022-08-31T12:38:42.738Z,140
2022-08-31T12:39:42.743Z,128
2022-08-31T12:40:43.361Z,116
2022-08-31T12:41:42.745Z,108
2022-08-31T12:42:42.740Z,100
2022-08-31T12:43:42.742Z,96
2022-08-31T12:44:42.742Z,92
2022-08-31T12:45:42.603Z,84
2022-08-31T12:46:46.865Z,80
2022-08-31T12:47:42.751Z,76
2022-08-31T12:48:42.750Z,72
2022-08-31T12:49:42.759Z,76
2022-08-31T12:50:42.760Z,68
2022-08-31T12:51:42.785Z,72
2022-08-31T12:52:42.858Z,72
2022-08-31T12:53:42.776Z,72
2022-08-31T12:54:42.792Z,72
2022-08-31T12:55:42.787Z,68
2022-08-31T12:56:42.771Z,68
2022-08-31T12:57:45.809Z,64
2022-08-31T12:58:43.644Z,64
2022-08-31T13:00:10.502Z,60
2022-08-31T13:00:42.870Z,56
2022-08-31T13:01:43.527Z,60
2022-08-31T13:02:46.868Z,56
2022-08-31T13:03:42.855Z,60
2022-08-31T13:04:42.791Z,56
2022-08-31T13:05:42.809Z,56
2022-08-31T13:06:42.802Z,56
2022-08-31T13:07:42.785Z,56
2022-08-31T13:08:45.633Z,56
2022-08-31T13:09:42.788Z,60
2022-08-31T13:10:43.542Z,60
2022-08-31T13:11:48.089Z,60
2022-08-31T13:12:42.800Z,60
2022-08-31T13:13:45.634Z,60
2022-08-31T13:14:42.804Z,64
2022-08-31T13:15:46.409Z,64
2022-08-31T13:16:43.176Z,68
2022-08-31T13:17:44.268Z,68
2022-08-31T13:18:42.810Z,68
2022-08-31T13:19:45.601Z,72
2022-08-31T13:20:42.823Z,72
2022-08-31T13:21:42.819Z,72
2022-08-31T13:22:42.853Z,72
2022-08-31T13:23:42.821Z,72
2022-08-31T13:24:56.008Z,72
2022-08-31T13:25:43.020Z,72
2022-08-31T13:26:42.853Z,76
2022-08-31T13:27:42.906Z,80
2022-08-31T13:28:42.845Z,84
2022-08-31T13:29:42.842Z,92
2022-08-31T13:31:00.411Z,104
2022-08-31T13:31:43.148Z,108
2022-08-31T13:32:42.829Z,112
2022-08-31T13:33:42.947Z,116
2022-08-31T13:34:42.850Z,116
2022-08-31T13:35:44.765Z,116
2022-08-31T13:36:42.876Z,120
2022-08-31T13:37:42.856Z,120
2022-08-31T13:38:42.846Z,120
2022-08-31T13:39:42.858Z,124
2022-08-31T13:40:43.233Z,124
2022-08-31T13:41:45.725Z,128
2022-08-31T13:42:42.739Z,132
2022-08-31T13:43:44.459Z,132
2022-08-31T13:44:42.868Z,140
2022-08-31T13:45:43.256Z,144
2022-08-31T13:46:50.821Z,140
2022-08-31T13:48:07.486Z,140
2022-08-31T13:48:42.881Z,140
2022-08-31T13:49:42.874Z,144
2022-08-31T13:50:42.897Z,148
2022-08-31T13:51:45.284Z,156
2022-08-31T13:52:45.723Z,168
2022-08-31T13:53:43.878Z,184
2022-08-31T13:54:43.110Z,200
2022-08-31T13:55:42.735Z,208
2022-08-31T13:56:42.879Z,220
2022-08-31T13:57:45.786Z,232
2022-08-31T13:58:42.927Z,244
2022-08-31T13:59:42.903Z,248
2022-08-31T14:00:42.927Z,252
2022-08-31T14:01:43.314Z,264
2022-08-31T14:02:44.500Z,280
2022-08-31T14:03:42.895Z,296
2022-08-31T14:04:42.897Z,308
2022-08-31T14:05:42.939Z,320
2022-08-31T14:06:42.902Z,324
2022-08-31T14:07:42.924Z,336